Weather at Belfast International Airport

Public forecast

Using degrees Celsius for public forecast. Weather courtesy of forecast.io.

Current aviation weather report (METAR) for Belfast International Airport

Retrieved 2022/01/25 05:20 UTC (11 minutes ago):

EGAA 250520Z AUTO 22004KT 200V260 7000 OVC021 05/03 Q1031

Aviation forecast (TAF) for Belfast International Airport

Retrieved 2022-01-25 00:00 UTC (6 hours ago):

TAF EGAA 242258Z 2500/2524 19006KT 7000 OVC012 PROB30 TEMPO 2500/2510 9999 BKN007 BECMG 2510/2514 9999 SCT020 TEMPO 2518/2524 8000 BKN012